createdAt,value
2022-08-01T00:00:15.312Z,20.10
2022-08-01T00:02:42.131Z,20.10
2022-08-01T00:05:09.508Z,20.20
2022-08-01T00:07:37.106Z,20.20
2022-08-01T00:10:04.671Z,20.20
2022-08-01T00:12:31.552Z,20.20
2022-08-01T00:14:58.529Z,20.30
2022-08-01T00:17:25.483Z,20.30
2022-08-01T00:19:52.322Z,20.30
2022-08-01T00:22:19.563Z,20.30
2022-08-01T00:24:46.268Z,20.30
2022-08-01T00:27:12.961Z,20.30
2022-08-01T00:30:09.800Z,20.30
2022-08-01T00:32:27.354Z,20.30
2022-08-01T00:34:54.313Z,20.30
2022-08-01T00:37:21.258Z,20.30
2022-08-01T00:39:47.990Z,20.20
2022-08-01T00:42:15.294Z,20.20
2022-08-01T00:44:42.259Z,20.20
2022-08-01T00:47:09.482Z,20.20
2022-08-01T00:49:36.908Z,20.20
2022-08-01T00:52:05.951Z,20.10
2022-08-01T00:54:33.383Z,20.10
2022-08-01T00:57:00.362Z,20.10
2022-08-01T00:59:27.449Z,20.00
2022-08-01T01:01:54.222Z,20.00
2022-08-01T01:04:21.972Z,20.00
2022-08-01T01:07:01.464Z,20.00
2022-08-01T01:09:40.139Z,20.00
2022-08-01T01:12:13.329Z,19.90
2022-08-01T01:14:47.554Z,19.90
2022-08-01T01:17:50.176Z,19.90
2022-08-01T01:20:06.515Z,19.90
2022-08-01T01:22:33.369Z,19.90
2022-08-01T01:25:23.527Z,19.80
2022-08-01T01:27:52.953Z,19.80
2022-08-01T01:30:19.641Z,19.70
2022-08-01T01:32:49.360Z,19.60
2022-08-01T01:35:23.741Z,19.50
2022-08-01T01:37:52.469Z,19.50
2022-08-01T01:40:21.121Z,19.40
2022-08-01T01:42:49.936Z,19.30
2022-08-01T01:45:17.279Z,19.30
2022-08-01T01:47:45.201Z,19.20
2022-08-01T01:50:13.668Z,19.10
2022-08-01T01:52:41.669Z,19.10
2022-08-01T01:55:09.658Z,19.00
2022-08-01T01:57:41.184Z,18.90
2022-08-01T02:00:09.467Z,18.90
2022-08-01T02:02:37.994Z,18.80
2022-08-01T02:05:06.245Z,18.80
2022-08-01T02:07:33.697Z,18.80
2022-08-01T02:10:01.355Z,18.80
2022-08-01T02:12:28.794Z,18.70
2022-08-01T02:14:56.934Z,18.70
2022-08-01T02:17:25.176Z,18.60
2022-08-01T02:19:51.887Z,18.60
2022-08-01T02:22:36.880Z,18.60
2022-08-01T02:25:27.469Z,18.60
2022-08-01T02:28:04.933Z,18.50
2022-08-01T02:30:33.681Z,18.50
2022-08-01T02:33:03.244Z,18.50
2022-08-01T02:35:32.904Z,18.50
2022-08-01T02:38:01.035Z,18.40
2022-08-01T02:40:29.154Z,18.40
2022-08-01T02:42:57.438Z,18.40
2022-08-01T02:45:26.269Z,18.30
2022-08-01T02:47:54.868Z,18.30
2022-08-01T02:50:22.161Z,18.30
2022-08-01T02:52:50.512Z,18.30
2022-08-01T02:55:17.794Z,18.30
2022-08-01T02:57:52.449Z,18.30
2022-08-01T03:00:25.007Z,18.30
2022-08-01T03:02:54.801Z,18.40
2022-08-01T03:05:21.893Z,18.40
2022-08-01T03:07:49.185Z,18.40
2022-08-01T03:10:17.305Z,18.50
2022-08-01T03:12:45.660Z,18.50
2022-08-01T03:15:15.728Z,18.50
2022-08-01T03:17:43.981Z,18.60
2022-08-01T03:20:13.511Z,18.60
2022-08-01T03:22:41.784Z,18.70
2022-08-01T03:25:09.364Z,18.70
2022-08-01T03:27:38.222Z,18.80
2022-08-01T03:30:07.890Z,18.80
2022-08-01T03:32:34.919Z,18.80
2022-08-01T03:35:02.129Z,18.80
2022-08-01T03:37:36.436Z,18.80
2022-08-01T03:40:06.191Z,18.90
2022-08-01T03:42:37.581Z,18.90
2022-08-01T03:45:13.828Z,18.90
2022-08-01T03:47:44.631Z,19.00
2022-08-01T03:50:12.957Z,19.00
2022-08-01T03:52:40.345Z,19.00
2022-08-01T03:55:08.132Z,19.00
2022-08-01T03:57:36.839Z,19.10
2022-08-01T04:00:07.900Z,19.10
2022-08-01T04:02:39.199Z,19.20
2022-08-01T04:05:08.355Z,19.20
2022-08-01T04:07:40.141Z,19.20
2022-08-01T04:10:07.987Z,19.20
2022-08-01T04:12:35.477Z,19.20
2022-08-01T04:15:02.853Z,19.20
2022-08-01T04:17:29.625Z,19.20
2022-08-01T04:19:57.604Z,19.30
2022-08-01T04:22:27.741Z,19.30
2022-08-01T04:24:57.075Z,19.30
2022-08-01T04:27:50.021Z,19.30
2022-08-01T04:30:20.841Z,19.30
2022-08-01T04:32:55.806Z,19.30
2022-08-01T04:36:01.858Z,19.40
2022-08-01T04:38:10.747Z,19.40
2022-08-01T04:40:38.151Z,19.50
2022-08-01T04:43:04.872Z,19.50
2022-08-01T04:45:34.682Z,19.50
2022-08-01T04:48:01.789Z,19.60
2022-08-01T04:50:28.808Z,19.70
2022-08-01T04:52:57.181Z,19.80
2022-08-01T04:55:24.365Z,20.00
2022-08-01T04:57:51.167Z,20.20
2022-08-01T05:00:18.378Z,20.40
2022-08-01T05:02:45.439Z,20.60
2022-08-01T05:05:13.756Z,20.80
2022-08-01T05:07:44.904Z,21.00
2022-08-01T05:10:12.960Z,21.20
2022-08-01T05:12:39.691Z,21.30
2022-08-01T05:15:11.801Z,21.40
2022-08-01T05:17:43.389Z,21.40
2022-08-01T05:20:12.532Z,21.50
2022-08-01T05:22:39.969Z,21.60
2022-08-01T05:25:06.908Z,21.70
2022-08-01T05:27:38.686Z,21.80
2022-08-01T05:30:05.690Z,22.00
2022-08-01T05:32:32.875Z,22.20
2022-08-01T05:35:00.692Z,22.30
2022-08-01T05:37:29.008Z,22.40
2022-08-01T05:39:55.691Z,22.40
2022-08-01T05:45:04.075Z,22.40
2022-08-01T05:47:31.981Z,22.50
2022-08-01T05:49:59.017Z,22.50
2022-08-01T05:52:25.926Z,22.80
2022-08-01T05:54:53.152Z,23.00
2022-08-01T05:57:20.772Z,23.70
2022-08-01T05:59:47.529Z,24.40
2022-08-01T06:02:14.747Z,24.80
2022-08-01T06:04:41.729Z,25.00
2022-08-01T06:07:08.423Z,25.00
2022-08-01T06:09:35.589Z,25.00
2022-08-01T06:12:02.598Z,24.90
2022-08-01T06:14:29.564Z,25.00
2022-08-01T06:16:56.862Z,25.10
2022-08-01T06:19:23.883Z,25.10
2022-08-01T06:21:50.651Z,25.30
2022-08-01T06:24:17.823Z,25.40
2022-08-01T06:26:44.683Z,25.60
2022-08-01T06:29:11.672Z,25.60
2022-08-01T06:31:39.278Z,25.60
2022-08-01T06:34:09.220Z,25.80
2022-08-01T06:36:35.921Z,25.90
2022-08-01T06:39:05.941Z,25.90
2022-08-01T06:41:32.902Z,26.00
2022-08-01T06:44:03.260Z,25.90
2022-08-01T06:46:32.697Z,25.90
2022-08-01T06:49:02.157Z,26.10
2022-08-01T06:51:28.999Z,26.20
2022-08-01T06:53:56.132Z,26.20
2022-08-01T06:56:23.141Z,26.30
2022-08-01T06:58:50.777Z,26.40
2022-08-01T07:01:19.054Z,26.60
2022-08-01T07:03:54.520Z,26.80
2022-08-01T07:06:23.191Z,26.70
2022-08-01T07:08:50.228Z,26.80
2022-08-01T07:11:19.897Z,27.00
2022-08-01T07:13:47.063Z,27.20
2022-08-01T07:16:14.773Z,27.20
2022-08-01T07:18:41.964Z,27.30
2022-08-01T07:21:39.087Z,27.30
2022-08-01T07:23:58.466Z,27.40
2022-08-01T07:26:27.634Z,27.40
2022-08-01T07:28:54.707Z,27.50
2022-08-01T07:31:21.376Z,27.50
2022-08-01T07:33:49.478Z,27.30
2022-08-01T07:36:17.161Z,27.40
2022-08-01T07:38:46.081Z,27.40
2022-08-01T07:41:13.677Z,27.10
2022-08-01T07:43:40.623Z,27.20
2022-08-01T07:46:08.618Z,27.30
2022-08-01T07:48:38.052Z,27.30
2022-08-01T07:51:05.072Z,27.30
2022-08-01T07:53:34.388Z,27.40
2022-08-01T07:56:03.800Z,27.50
2022-08-01T07:58:30.735Z,27.60
2022-08-01T08:00:57.505Z,27.60
2022-08-01T08:03:24.418Z,27.70
2022-08-01T08:06:00.254Z,27.70
2022-08-01T08:08:27.685Z,27.70
2022-08-01T08:10:54.685Z,27.70
2022-08-01T08:13:21.549Z,28.00
2022-08-01T08:15:48.989Z,28.10
2022-08-01T08:18:16.328Z,28.10
2022-08-01T08:20:43.398Z,28.30
2022-08-01T08:23:43.101Z,28.30
2022-08-01T08:26:13.573Z,28.20
2022-08-01T08:28:44.095Z,28.20
2022-08-01T08:31:25.420Z,28.10
2022-08-01T08:33:58.803Z,28.30
2022-08-01T08:36:31.074Z,28.30
2022-08-01T08:39:01.899Z,28.40
2022-08-01T08:41:37.101Z,28.50
2022-08-01T08:44:10.941Z,28.50
2022-08-01T08:46:45.178Z,28.40
2022-08-01T08:49:13.485Z,28.40
2022-08-01T08:51:42.386Z,28.50
2022-08-01T08:54:11.430Z,28.40
2022-08-01T08:56:38.737Z,28.40
2022-08-01T08:59:05.967Z,28.30
2022-08-01T09:01:35.862Z,28.30
2022-08-01T09:04:04.372Z,28.30
2022-08-01T09:06:32.235Z,28.30
2022-08-01T09:08:59.382Z,28.30
2022-08-01T09:11:26.569Z,28.30
2022-08-01T09:14:07.099Z,28.30
2022-08-01T09:16:36.809Z,28.50
2022-08-01T09:19:16.418Z,28.70
2022-08-01T09:21:57.218Z,28.60
2022-08-01T09:24:30.544Z,28.60
2022-08-01T09:26:58.355Z,28.70
2022-08-01T09:29:37.172Z,28.80
2022-08-01T09:32:09.126Z,28.80
2022-08-01T09:34:43.528Z,28.80
2022-08-01T09:37:11.036Z,28.90
2022-08-01T09:39:40.835Z,28.90
2022-08-01T09:42:28.660Z,28.80
2022-08-01T09:44:56.873Z,28.80
2022-08-01T09:47:39.957Z,28.70
2022-08-01T09:50:10.674Z,28.50
2022-08-01T09:52:39.023Z,28.60
2022-08-01T09:55:08.680Z,28.70
2022-08-01T09:57:36.620Z,28.70
2022-08-01T10:00:04.819Z,28.80
2022-08-01T10:02:42.404Z,28.80
2022-08-01T10:05:20.809Z,29.00
2022-08-01T10:07:58.035Z,29.00
2022-08-01T10:10:28.799Z,29.30
2022-08-01T10:12:59.302Z,29.10
2022-08-01T10:15:36.505Z,29.00
2022-08-01T10:18:21.431Z,29.10
2022-08-01T10:20:59.833Z,28.90
2022-08-01T10:23:40.563Z,28.80
2022-08-01T10:26:09.350Z,28.80
2022-08-01T10:28:39.384Z,28.70
2022-08-01T10:31:12.357Z,28.80
2022-08-01T10:33:50.652Z,28.80
2022-08-01T10:36:25.518Z,28.90
2022-08-01T10:38:54.870Z,29.00
2022-08-01T10:41:22.223Z,29.30
2022-08-01T10:43:49.045Z,29.40
2022-08-01T10:46:17.433Z,29.70
2022-08-01T10:49:02.516Z,29.80
2022-08-01T10:51:52.943Z,29.80
2022-08-01T10:54:17.554Z,29.70
2022-08-01T10:56:51.646Z,29.20
2022-08-01T10:59:49.210Z,28.90
2022-08-01T11:02:10.232Z,28.70
2022-08-01T11:04:55.347Z,28.40
2022-08-01T11:07:26.129Z,28.30
2022-08-01T11:10:14.691Z,28.60
2022-08-01T11:12:44.068Z,28.90
2022-08-01T11:15:12.678Z,29.10
2022-08-01T11:17:54.864Z,29.50
2022-08-01T11:20:39.542Z,29.60
2022-08-01T11:23:11.681Z,29.90
2022-08-01T11:26:05.055Z,30.00
2022-08-01T11:28:34.800Z,30.10
2022-08-01T11:31:11.075Z,30.30
2022-08-01T11:33:46.229Z,30.30
2022-08-01T11:36:42.747Z,30.40
2022-08-01T11:39:13.818Z,30.50
2022-08-01T11:41:42.062Z,30.30
2022-08-01T11:44:12.193Z,30.20
2022-08-01T11:46:48.133Z,30.40
2022-08-01T11:49:23.463Z,30.60
2022-08-01T11:51:58.728Z,30.50
2022-08-01T11:54:35.360Z,30.50
2022-08-01T11:57:06.519Z,30.10
2022-08-01T12:00:02.707Z,29.80
2022-08-01T12:02:40.560Z,29.80
2022-08-01T12:05:14.004Z,29.90
2022-08-01T12:07:44.158Z,30.10
2022-08-01T12:10:12.977Z,30.30
2022-08-01T12:13:06.316Z,30.30
2022-08-01T12:15:35.052Z,30.20
2022-08-01T12:18:03.216Z,30.00
2022-08-01T12:20:34.045Z,29.90
2022-08-01T12:23:04.349Z,30.00
2022-08-01T12:25:32.962Z,29.80
2022-08-01T12:28:06.872Z,29.60
2022-08-01T12:30:37.163Z,29.50
2022-08-01T12:33:05.431Z,29.20
2022-08-01T12:35:32.715Z,29.30
2022-08-01T12:38:04.464Z,29.40
2022-08-01T12:40:32.570Z,29.30
2022-08-01T12:43:05.092Z,29.00
2022-08-01T12:45:34.488Z,28.80
2022-08-01T12:48:02.081Z,28.80
2022-08-01T12:50:30.910Z,28.50
2022-08-01T12:52:58.371Z,28.40
2022-08-01T12:55:34.393Z,28.30
2022-08-01T12:58:10.425Z,28.40
2022-08-01T13:00:45.553Z,28.70
2022-08-01T13:03:17.209Z,28.90
2022-08-01T13:05:57.556Z,29.30
2022-08-01T13:08:25.724Z,29.50
2022-08-01T13:11:01.410Z,29.70
2022-08-01T13:13:38.329Z,30.00
2022-08-01T13:16:06.629Z,30.40
2022-08-01T13:18:39.681Z,30.50
2022-08-01T13:21:16.540Z,30.60
2022-08-01T13:24:12.674Z,30.40
2022-08-01T13:26:39.789Z,30.40
2022-08-01T13:29:07.551Z,30.40
2022-08-01T13:31:34.838Z,30.30
2022-08-01T13:34:04.937Z,30.30
2022-08-01T13:36:32.398Z,30.20
2022-08-01T13:39:18.618Z,30.10
2022-08-01T13:41:47.386Z,30.10
2022-08-01T13:44:14.510Z,30.20
2022-08-01T13:46:47.888Z,30.20
2022-08-01T13:49:17.672Z,30.10
2022-08-01T13:51:46.996Z,30.00
2022-08-01T13:54:13.947Z,29.80
2022-08-01T13:56:40.605Z,29.40
2022-08-01T13:59:07.855Z,29.30
2022-08-01T14:01:35.522Z,29.10
2022-08-01T14:06:44.548Z,29.00
2022-08-01T14:09:17.490Z,28.90
2022-08-01T14:11:46.892Z,29.00
2022-08-01T14:14:14.130Z,28.90
2022-08-01T14:16:43.016Z,29.00
2022-08-01T14:19:10.971Z,29.00
2022-08-01T14:21:38.724Z,29.00
2022-08-01T14:24:07.981Z,29.00
2022-08-01T14:26:36.206Z,29.00
2022-08-01T14:29:03.406Z,29.00
2022-08-01T14:31:33.991Z,29.10
2022-08-01T14:34:01.910Z,29.30
2022-08-01T14:36:31.489Z,29.30
2022-08-01T14:39:00.364Z,29.30
2022-08-01T14:41:28.292Z,29.20
2022-08-01T14:43:57.412Z,29.20
2022-08-01T14:46:24.158Z,29.30
2022-08-01T14:48:51.278Z,29.50
2022-08-01T14:51:18.408Z,29.60
2022-08-01T14:53:46.806Z,29.50
2022-08-01T14:56:18.507Z,29.50
2022-08-01T14:58:45.881Z,29.40
2022-08-01T15:01:12.555Z,29.30
2022-08-01T15:03:39.585Z,29.20
2022-08-01T15:06:15.991Z,29.10
2022-08-01T15:09:12.962Z,29.00
2022-08-01T15:11:39.877Z,28.90
2022-08-01T15:14:25.708Z,28.90
2022-08-01T15:16:59.326Z,28.80
2022-08-01T15:19:42.701Z,28.50
2022-08-01T15:22:10.120Z,28.30
2022-08-01T15:24:36.823Z,28.10
2022-08-01T15:27:03.925Z,27.90
2022-08-01T15:29:30.877Z,27.80
2022-08-01T15:31:57.602Z,27.60
2022-08-01T15:34:24.553Z,27.50
2022-08-01T15:36:51.335Z,27.40
2022-08-01T15:39:18.178Z,27.30
2022-08-01T15:41:44.951Z,27.20
2022-08-01T15:44:11.932Z,27.20
2022-08-01T15:46:38.658Z,27.10
2022-08-01T15:49:06.254Z,27.00
2022-08-01T15:51:33.651Z,26.90
2022-08-01T15:54:03.550Z,26.90
2022-08-01T15:56:31.238Z,26.90
2022-08-01T15:58:58.596Z,26.80
2022-08-01T16:01:27.065Z,26.70
2022-08-01T16:03:55.150Z,26.70
2022-08-01T16:06:21.844Z,26.60
2022-08-01T16:08:48.752Z,26.60
2022-08-01T16:11:15.439Z,26.50
2022-08-01T16:13:42.504Z,26.50
2022-08-01T16:16:09.779Z,26.50
2022-08-01T16:18:36.946Z,26.40
2022-08-01T16:21:03.832Z,26.40
2022-08-01T16:23:30.972Z,26.40
2022-08-01T16:25:58.106Z,26.30
2022-08-01T16:28:25.138Z,26.30
2022-08-01T16:31:04.879Z,26.30
2022-08-01T16:33:54.260Z,26.10
2022-08-01T16:36:24.782Z,26.10
2022-08-01T16:38:51.905Z,26.00
2022-08-01T16:41:19.742Z,26.00
2022-08-01T16:43:53.476Z,26.00
2022-08-01T16:46:21.629Z,25.90
2022-08-01T16:48:57.474Z,25.80
2022-08-01T16:51:24.767Z,25.80
2022-08-01T16:53:57.140Z,25.80
2022-08-01T16:56:24.339Z,25.80
2022-08-01T16:58:51.519Z,25.60
2022-08-01T17:01:58.817Z,25.60
2022-08-01T17:04:08.435Z,25.50
2022-08-01T17:06:36.291Z,25.30
2022-08-01T17:09:04.547Z,25.20
2022-08-01T17:11:31.514Z,25.20
2022-08-01T17:13:58.400Z,25.00
2022-08-01T17:16:25.144Z,24.90
2022-08-01T17:18:52.152Z,24.90
2022-08-01T17:21:18.912Z,24.80
2022-08-01T17:23:45.668Z,24.70
2022-08-01T17:26:13.141Z,24.60
2022-08-01T17:28:40.435Z,24.50
2022-08-01T17:31:10.583Z,24.40
2022-08-01T17:33:46.115Z,24.30
2022-08-01T17:36:14.997Z,24.30
2022-08-01T17:38:41.968Z,24.30
2022-08-01T17:41:08.766Z,24.20
2022-08-01T17:43:35.598Z,24.10
2022-08-01T17:46:02.892Z,24.10
2022-08-01T17:48:30.731Z,24.00
2022-08-01T17:50:57.735Z,24.00
2022-08-01T17:53:25.236Z,23.90
2022-08-01T17:55:57.314Z,23.90
2022-08-01T17:58:33.748Z,23.80
2022-08-01T18:01:13.102Z,23.80
2022-08-01T18:03:41.383Z,23.80
2022-08-01T18:06:09.410Z,23.70
2022-08-01T18:08:36.220Z,23.70
2022-08-01T18:11:03.112Z,23.60
2022-08-01T18:13:30.054Z,23.60
2022-08-01T18:15:56.977Z,23.50
2022-08-01T18:18:33.600Z,23.50
2022-08-01T18:21:04.387Z,23.40
2022-08-01T18:23:32.001Z,23.30
2022-08-01T18:26:01.441Z,23.30
2022-08-01T18:28:34.055Z,23.20
2022-08-01T18:31:07.002Z,23.20
2022-08-01T18:33:34.708Z,23.20
2022-08-01T18:36:03.852Z,23.10
2022-08-01T18:38:33.224Z,23.00
2022-08-01T18:41:01.599Z,23.00
2022-08-01T18:43:29.330Z,22.90
2022-08-01T18:45:58.760Z,22.80
2022-08-01T18:48:25.903Z,22.80
2022-08-01T18:51:00.650Z,22.80
2022-08-01T18:53:28.733Z,22.70
2022-08-01T18:55:57.137Z,22.70
2022-08-01T18:58:24.014Z,22.50
2022-08-01T19:00:51.281Z,22.40
2022-08-01T19:03:20.495Z,22.40
2022-08-01T19:05:51.339Z,22.30
2022-08-01T19:08:18.290Z,22.20
2022-08-01T19:10:45.201Z,22.10
2022-08-01T19:13:11.982Z,22.00
2022-08-01T19:15:40.212Z,22.00
2022-08-01T19:18:07.183Z,21.90
2022-08-01T19:20:37.516Z,21.80
2022-08-01T19:23:26.416Z,21.80
2022-08-01T19:25:56.342Z,21.70
2022-08-01T19:28:26.815Z,21.70
2022-08-01T19:30:56.199Z,21.70
2022-08-01T19:33:24.317Z,21.70
2022-08-01T19:35:52.379Z,21.60
2022-08-01T19:38:19.639Z,21.60
2022-08-01T19:40:46.486Z,21.50
2022-08-01T19:43:14.873Z,21.50
2022-08-01T19:45:43.371Z,21.50
2022-08-01T19:48:10.326Z,21.50
2022-08-01T19:50:40.780Z,21.50
2022-08-01T19:53:13.888Z,21.50
2022-08-01T19:55:43.311Z,21.50
2022-08-01T19:58:28.787Z,21.40
2022-08-01T20:00:55.927Z,21.50
2022-08-01T20:03:23.429Z,21.40
2022-08-01T20:05:50.994Z,21.50
2022-08-01T20:08:20.800Z,21.40
2022-08-01T20:10:48.599Z,21.40
2022-08-01T20:13:16.320Z,21.40
2022-08-01T20:15:44.573Z,21.40
2022-08-01T20:18:11.415Z,21.40
2022-08-01T20:20:38.710Z,21.40
2022-08-01T20:23:09.511Z,21.30
2022-08-01T20:25:39.797Z,21.30
2022-08-01T20:28:09.821Z,21.20
2022-08-01T20:30:37.163Z,21.30
2022-08-01T20:33:05.517Z,21.30
2022-08-01T20:35:51.588Z,21.20
2022-08-01T20:38:24.969Z,21.20
2022-08-01T20:40:58.787Z,21.20
2022-08-01T20:43:27.876Z,21.10
2022-08-01T20:45:55.574Z,21.10
2022-08-01T20:48:27.511Z,21.10
2022-08-01T20:51:14.830Z,21.00
2022-08-01T20:53:43.520Z,21.00
2022-08-01T20:56:10.684Z,21.00
2022-08-01T20:58:58.616Z,20.90
2022-08-01T21:01:30.074Z,20.90
2022-08-01T21:04:15.778Z,20.90
2022-08-01T21:06:52.336Z,20.80
2022-08-01T21:09:20.938Z,20.80
2022-08-01T21:11:56.227Z,20.80
2022-08-01T21:14:28.301Z,20.80
2022-08-01T21:16:58.921Z,20.70
2022-08-01T21:19:27.681Z,20.70
2022-08-01T21:22:08.167Z,20.60
2022-08-01T21:24:57.956Z,20.60
2022-08-01T21:27:33.713Z,20.50
2022-08-01T21:30:06.131Z,20.50
2022-08-01T21:32:34.563Z,20.40
2022-08-01T21:35:03.128Z,20.40
2022-08-01T21:37:31.341Z,20.40
2022-08-01T21:40:02.792Z,20.50
2022-08-01T21:42:40.176Z,20.50
2022-08-01T21:45:09.828Z,20.50
2022-08-01T21:47:37.219Z,20.60
2022-08-01T21:50:05.541Z,20.60
2022-08-01T21:52:45.972Z,20.60
2022-08-01T21:55:18.034Z,20.60
2022-08-01T21:57:57.639Z,20.60
2022-08-01T22:00:25.699Z,20.60
2022-08-01T22:03:04.234Z,20.50
2022-08-01T22:05:49.933Z,20.50
2022-08-01T22:08:55.879Z,20.50
2022-08-01T22:11:36.739Z,20.40
2022-08-01T22:14:25.101Z,20.40
2022-08-01T22:16:57.676Z,20.30
2022-08-01T22:19:29.603Z,20.30
2022-08-01T22:22:44.360Z,20.30
2022-08-01T22:25:02.712Z,20.20
2022-08-01T22:28:05.619Z,20.10
2022-08-01T22:30:28.425Z,20.00
2022-08-01T22:33:07.458Z,20.00
2022-08-01T22:35:45.496Z,20.00
2022-08-01T22:38:16.067Z,19.90
2022-08-01T22:40:51.967Z,19.90
2022-08-01T22:43:40.572Z,19.90
2022-08-01T22:46:15.558Z,20.00
2022-08-01T22:48:52.398Z,20.00
2022-08-01T22:51:27.405Z,20.00
2022-08-01T22:54:00.394Z,20.00
2022-08-01T22:56:29.610Z,20.00
2022-08-01T22:58:59.189Z,20.00
2022-08-01T23:01:28.478Z,20.00
2022-08-01T23:03:57.835Z,20.00
2022-08-01T23:06:43.115Z,20.00
2022-08-01T23:09:10.515Z,20.00
2022-08-01T23:11:38.494Z,20.00
2022-08-01T23:14:14.146Z,20.00
2022-08-01T23:16:41.886Z,19.90
2022-08-01T23:19:09.718Z,20.00
2022-08-01T23:21:41.906Z,19.90
2022-08-01T23:24:14.968Z,19.90
2022-08-01T23:26:42.520Z,19.90
2022-08-01T23:29:10.311Z,19.90
2022-08-01T23:31:58.215Z,19.90
2022-08-01T23:34:26.655Z,19.90
2022-08-01T23:36:53.665Z,19.90
2022-08-01T23:39:20.653Z,19.90
2022-08-01T23:41:57.845Z,19.90
2022-08-01T23:44:44.822Z,20.00
2022-08-01T23:47:14.515Z,19.90
2022-08-01T23:49:53.109Z,19.90
2022-08-01T23:52:24.769Z,19.90
2022-08-01T23:54:57.262Z,19.90
2022-08-01T23:57:25.373Z,19.90
2022-08-01T23:59:54.137Z,19.90
